createdAt,value
2022-11-19T00:02:18.158Z,99988.44
2022-11-19T00:05:05.708Z,99986.09
2022-11-19T00:07:53.153Z,99978.91
2022-11-19T00:10:40.594Z,99976.03
2022-11-19T00:13:27.945Z,99973.03
2022-11-19T00:16:15.364Z,99963.06
2022-11-19T00:19:02.768Z,99962.34
2022-11-19T00:21:50.323Z,99972.53
2022-11-19T00:24:37.873Z,99973.53
2022-11-19T00:27:25.333Z,99973.53
2022-11-19T00:30:32.715Z,99987.84
2022-11-19T00:33:20.552Z,99984.34
2022-11-19T00:36:10.003Z,99996.03
2022-11-19T00:38:57.415Z,99993.50
2022-11-19T00:41:44.730Z,100001.88
2022-11-19T00:44:36.917Z,99998.53
2022-11-19T00:47:24.942Z,100004.28
2022-11-19T00:50:12.292Z,100005.94
2022-11-19T00:52:59.766Z,100013.41
2022-11-19T00:55:47.145Z,100004.03
2022-11-19T00:58:34.704Z,100011.63
2022-11-19T01:01:23.279Z,100022.59
2022-11-19T01:04:11.083Z,100026.84
2022-11-19T01:06:58.570Z,100042.88
2022-11-19T01:09:47.380Z,100044.63
2022-11-19T01:12:54.715Z,100042.19
2022-11-19T01:15:42.208Z,100038.88
2022-11-19T01:18:29.783Z,100040.56
2022-11-19T01:21:18.031Z,100044.81
2022-11-19T01:24:05.665Z,100049.28
2022-11-19T01:26:53.051Z,100053.72
2022-11-19T01:29:40.440Z,100057.97
2022-11-19T01:32:27.829Z,100055.47
2022-11-19T01:35:15.252Z,100048.84
2022-11-19T01:38:03.045Z,100055.78
2022-11-19T01:40:50.506Z,100063.38
2022-11-19T01:43:40.957Z,100079.41
2022-11-19T01:46:29.796Z,100079.28
2022-11-19T01:49:19.226Z,100075.72
2022-11-19T01:52:06.937Z,100080.66
2022-11-19T01:54:55.567Z,100083.06
2022-11-19T01:57:43.015Z,100087.06
2022-11-19T02:00:30.454Z,100102.97
2022-11-19T02:03:19.630Z,100101.19
2022-11-19T02:06:07.785Z,100108.72
2022-11-19T02:08:55.260Z,100104.41
2022-11-19T02:11:54.887Z,100112.56
2022-11-19T02:14:51.879Z,100106.53
2022-11-19T02:18:01.133Z,100113.13
2022-11-19T02:20:54.521Z,100104.59
2022-11-19T02:23:45.928Z,100113.66
2022-11-19T02:26:52.520Z,100115.09
2022-11-19T02:29:58.304Z,100116.44
2022-11-19T02:32:51.849Z,100120.47
2022-11-19T02:35:42.099Z,100111.69
2022-11-19T02:38:35.637Z,100102.75
2022-11-19T02:41:35.345Z,100089.78
2022-11-19T02:44:41.443Z,100100.38
2022-11-19T02:47:42.103Z,100110.25
2022-11-19T02:50:35.345Z,100106.63
2022-11-19T02:53:23.882Z,100102.97
2022-11-19T02:56:12.527Z,100107.75
2022-11-19T02:59:18.999Z,100110.97
2022-11-19T03:02:25.172Z,100116.69
2022-11-19T03:05:15.400Z,100113.91
2022-11-19T03:08:02.976Z,100108.59
2022-11-19T03:11:02.762Z,100110.91
2022-11-19T03:14:21.040Z,100115.88
2022-11-19T03:17:13.888Z,100130.81
2022-11-19T03:20:04.730Z,100129.03
2022-11-19T03:22:54.695Z,100128.88
2022-11-19T03:25:45.546Z,100133.13
2022-11-19T03:28:35.910Z,100134.72
2022-11-19T03:31:25.116Z,100131.25
2022-11-19T03:34:15.442Z,100122.00
2022-11-19T03:37:04.311Z,100127.91
2022-11-19T03:39:53.043Z,100140.53
2022-11-19T03:42:41.553Z,100144.59
2022-11-19T03:45:32.723Z,100148.75
2022-11-19T03:48:21.802Z,100144.34
2022-11-19T03:51:29.608Z,100140.09
2022-11-19T03:54:17.275Z,100145.03
2022-11-19T03:57:06.132Z,100141.59
2022-11-19T03:59:53.511Z,100144.06
2022-11-19T04:02:41.003Z,100149.31
2022-11-19T04:05:28.379Z,100158.72
2022-11-19T04:08:15.795Z,100173.91
2022-11-19T04:13:49.405Z,100177.19
2022-11-19T04:16:36.804Z,100182.00
2022-11-19T04:19:24.215Z,100177.00
2022-11-19T04:22:11.568Z,100175.31
2022-11-19T04:24:58.969Z,100188.03
2022-11-19T04:27:46.960Z,100191.34
2022-11-19T04:30:34.370Z,100188.78
2022-11-19T04:33:21.792Z,100182.97
2022-11-19T04:36:09.204Z,100187.09
2022-11-19T04:38:56.582Z,100196.25
2022-11-19T04:41:44.038Z,100194.56
2022-11-19T04:44:33.000Z,100199.63
2022-11-19T04:47:20.521Z,100212.28
2022-11-19T04:50:08.122Z,100213.84
2022-11-19T04:52:55.523Z,100207.94
2022-11-19T04:55:42.948Z,100217.22
2022-11-19T04:58:30.352Z,100206.81
2022-11-19T05:01:20.479Z,100208.31
2022-11-19T05:04:08.057Z,100213.28
2022-11-19T05:06:55.573Z,100208.19
2022-11-19T05:09:43.007Z,100187.66
2022-11-19T05:12:30.389Z,100182.41
2022-11-19T05:15:17.919Z,100187.50
2022-11-19T05:18:05.379Z,100188.50
2022-11-19T05:20:52.861Z,100186.84
2022-11-19T05:23:40.497Z,100181.16
2022-11-19T05:26:28.040Z,100188.13
2022-11-19T05:29:15.492Z,100198.44
2022-11-19T05:32:02.969Z,100191.56
2022-11-19T05:34:50.441Z,100203.41
2022-11-19T05:37:37.919Z,100214.25
2022-11-19T05:40:25.309Z,100209.00
2022-11-19T05:43:12.946Z,100207.88
2022-11-19T05:46:01.139Z,100202.56
2022-11-19T05:48:48.542Z,100205.78
2022-11-19T05:51:36.070Z,100213.41
2022-11-19T05:54:23.458Z,100220.97
2022-11-19T05:57:10.880Z,100214.91
2022-11-19T05:59:58.263Z,100218.13
2022-11-19T06:02:46.012Z,100217.16
2022-11-19T06:05:38.789Z,100221.94
2022-11-19T06:08:27.626Z,100216.47
2022-11-19T06:11:36.335Z,100207.69
2022-11-19T06:14:25.438Z,100203.09
2022-11-19T06:17:13.241Z,100192.91
2022-11-19T06:20:00.727Z,100199.81
2022-11-19T06:22:48.065Z,100207.53
2022-11-19T06:25:35.619Z,100215.81
2022-11-19T06:28:23.113Z,100209.69
2022-11-19T06:31:10.639Z,100211.19
2022-11-19T06:33:58.113Z,100218.59
2022-11-19T06:36:50.337Z,100235.41
2022-11-19T06:39:38.200Z,100240.06
2022-11-19T06:42:38.086Z,100244.16
2022-11-19T06:45:25.567Z,100248.47
2022-11-19T06:48:12.981Z,100255.00
2022-11-19T06:51:01.745Z,100259.81
2022-11-19T06:53:50.383Z,100247.59
2022-11-19T06:56:37.788Z,100243.06
2022-11-19T06:59:25.183Z,100250.47
2022-11-19T07:02:12.986Z,100261.41
2022-11-19T07:05:00.510Z,100267.09
2022-11-19T07:07:48.282Z,100273.59
2022-11-19T07:10:37.914Z,100286.09
2022-11-19T07:13:45.577Z,100288.25
2022-11-19T07:16:34.564Z,100291.06
2022-11-19T07:19:22.200Z,100294.34
2022-11-19T07:22:10.101Z,100306.34
2022-11-19T07:24:57.564Z,100310.72
2022-11-19T07:27:47.246Z,100309.47
2022-11-19T07:30:34.725Z,100318.69
2022-11-19T07:33:22.244Z,100321.34
2022-11-19T07:36:15.476Z,100329.72
2022-11-19T07:39:05.759Z,100333.16
2022-11-19T07:42:11.996Z,100339.75
2022-11-19T07:45:01.228Z,100335.63
2022-11-19T07:47:50.527Z,100340.81
2022-11-19T07:50:37.955Z,100338.13
2022-11-19T07:53:25.307Z,100346.44
2022-11-19T07:56:12.701Z,100342.88
2022-11-19T07:59:00.602Z,100347.41
2022-11-19T08:01:48.094Z,100352.34
2022-11-19T08:04:35.639Z,100346.78
2022-11-19T08:07:23.225Z,100343.97
2022-11-19T08:10:11.055Z,100341.31
2022-11-19T08:13:08.807Z,100336.72
2022-11-19T08:16:03.744Z,100340.09
2022-11-19T08:18:51.179Z,100332.28
2022-11-19T08:21:43.008Z,100341.50
2022-11-19T08:24:30.402Z,100332.59
2022-11-19T08:27:18.637Z,100332.34
2022-11-19T08:30:06.287Z,100330.88
2022-11-19T08:32:53.790Z,100319.19
2022-11-19T08:35:41.315Z,100308.81
2022-11-19T08:38:28.724Z,100303.41
2022-11-19T08:41:37.602Z,100300.59
2022-11-19T08:44:25.242Z,100302.16
2022-11-19T08:47:12.704Z,100305.88
2022-11-19T08:50:00.178Z,100310.13
2022-11-19T08:52:53.571Z,100317.03
2022-11-19T08:55:41.881Z,100311.44
2022-11-19T08:58:29.276Z,100306.59
2022-11-19T09:01:17.457Z,100308.00
2022-11-19T09:04:05.062Z,100310.78
2022-11-19T09:06:52.581Z,100312.13
2022-11-19T09:09:39.928Z,100313.66
2022-11-19T09:12:29.590Z,100309.31
2022-11-19T09:15:19.512Z,100320.53
2022-11-19T09:18:07.569Z,100310.63
2022-11-19T09:20:56.041Z,100315.88
2022-11-19T09:23:44.159Z,100327.84
2022-11-19T09:26:32.087Z,100328.00
2022-11-19T09:29:19.890Z,100343.63
2022-11-19T09:32:11.550Z,100358.34
2022-11-19T09:34:59.359Z,100353.84
2022-11-19T09:37:47.427Z,100340.56
2022-11-19T09:40:37.782Z,100348.66
2022-11-19T09:43:34.591Z,100345.09
2022-11-19T09:46:28.503Z,100358.44
2022-11-19T09:49:22.266Z,100349.13
2022-11-19T09:52:12.208Z,100344.84
2022-11-19T09:55:00.857Z,100357.69
2022-11-19T09:57:58.865Z,100350.88
2022-11-19T10:00:46.379Z,100351.63
2022-11-19T10:03:34.267Z,100348.16
2022-11-19T10:06:25.827Z,100347.31
2022-11-19T10:09:13.304Z,100347.97
2022-11-19T10:12:00.722Z,100350.47
2022-11-19T10:14:54.335Z,100343.56
2022-11-19T10:17:47.891Z,100339.44
2022-11-19T10:20:53.813Z,100333.81
2022-11-19T10:23:49.711Z,100328.06
2022-11-19T10:26:39.963Z,100320.19
2022-11-19T10:29:29.836Z,100325.75
2022-11-19T10:32:21.433Z,100317.97
2022-11-19T10:35:15.185Z,100318.53
2022-11-19T10:38:05.183Z,100313.59
2022-11-19T10:41:13.056Z,100309.47
2022-11-19T10:44:02.958Z,100310.81
2022-11-19T10:46:50.779Z,100300.53
2022-11-19T10:49:41.716Z,100288.75
2022-11-19T10:52:31.747Z,100295.16
2022-11-19T10:55:24.369Z,100279.19
2022-11-19T10:58:21.081Z,100281.00
2022-11-19T11:01:22.477Z,100281.59
2022-11-19T11:04:19.217Z,100268.66
2022-11-19T11:07:07.005Z,100265.22
2022-11-19T11:09:54.455Z,100263.75
2022-11-19T11:13:00.808Z,100261.59
2022-11-19T11:15:49.199Z,100267.69
2022-11-19T11:18:40.654Z,100266.19
2022-11-19T11:21:28.166Z,100267.69
2022-11-19T11:24:16.186Z,100266.59
2022-11-19T11:27:24.959Z,100261.41
2022-11-19T11:30:12.458Z,100273.53
2022-11-19T11:33:20.247Z,100266.69
2022-11-19T11:36:15.784Z,100263.22
2022-11-19T11:39:04.502Z,100263.88
2022-11-19T11:42:05.278Z,100261.28
2022-11-19T11:44:57.614Z,100252.06
2022-11-19T11:47:45.339Z,100257.47
2022-11-19T11:50:33.105Z,100256.50
2022-11-19T11:53:31.536Z,100252.06
2022-11-19T11:56:21.157Z,100246.94
2022-11-19T11:59:15.235Z,100246.44
2022-11-19T12:02:04.032Z,100247.59
2022-11-19T12:04:51.798Z,100239.56
2022-11-19T12:07:58.392Z,100238.31
2022-11-19T12:11:00.239Z,100232.88
2022-11-19T12:13:56.245Z,100231.47
2022-11-19T12:17:00.297Z,100233.78
2022-11-19T12:19:57.084Z,100240.19
2022-11-19T12:22:44.475Z,100235.75
2022-11-19T12:25:37.222Z,100245.28
2022-11-19T12:28:24.570Z,100248.00
2022-11-19T12:31:23.477Z,100248.72
2022-11-19T12:34:22.795Z,100250.22
2022-11-19T12:37:29.906Z,100238.06
2022-11-19T12:40:20.446Z,100241.19
2022-11-19T12:43:07.840Z,100247.94
2022-11-19T12:46:18.651Z,100254.75
2022-11-19T12:49:25.082Z,100246.84
2022-11-19T12:52:24.789Z,100233.88
2022-11-19T12:55:18.817Z,100230.25
2022-11-19T12:58:09.248Z,100222.84
2022-11-19T13:01:02.076Z,100223.16
2022-11-19T13:04:03.828Z,100221.78
2022-11-19T13:07:02.819Z,100224.50
2022-11-19T13:09:50.203Z,100224.72
2022-11-19T13:12:41.460Z,100225.72
2022-11-19T13:15:35.256Z,100229.09
2022-11-19T13:18:22.792Z,100235.41
2022-11-19T13:21:19.262Z,100234.53
2022-11-19T13:24:20.932Z,100225.97
2022-11-19T13:27:16.589Z,100210.59
2022-11-19T13:30:16.495Z,100196.13
2022-11-19T13:33:13.954Z,100192.19
2022-11-19T13:36:07.693Z,100193.81
2022-11-19T13:38:55.778Z,100199.59
2022-11-19T13:42:05.999Z,100205.34
2022-11-19T13:44:53.493Z,100194.31
2022-11-19T13:47:47.679Z,100199.50
2022-11-19T13:50:40.206Z,100189.31
2022-11-19T13:53:34.340Z,100194.63
2022-11-19T13:56:21.886Z,100187.91
2022-11-19T13:59:21.897Z,100184.63
2022-11-19T14:02:29.275Z,100182.81
2022-11-19T14:05:19.721Z,100172.09
2022-11-19T14:08:26.728Z,100179.41
2022-11-19T14:11:22.842Z,100164.31
2022-11-19T14:14:30.154Z,100174.50
2022-11-19T14:17:54.787Z,100174.19
2022-11-19T14:21:02.091Z,100169.81
2022-11-19T14:24:07.894Z,100167.84
2022-11-19T14:27:13.366Z,100169.41
2022-11-19T14:30:11.268Z,100159.94
2022-11-19T14:32:58.669Z,100156.50
2022-11-19T14:35:46.640Z,100158.97
2022-11-19T14:38:36.704Z,100151.31
2022-11-19T14:41:31.738Z,100154.44
2022-11-19T14:44:25.255Z,100155.16
2022-11-19T14:47:21.816Z,100156.09
2022-11-19T14:50:10.904Z,100157.16
2022-11-19T14:52:59.996Z,100162.06
2022-11-19T14:55:52.971Z,100147.53
2022-11-19T14:58:49.826Z,100161.94
2022-11-19T15:01:49.410Z,100146.78
2022-11-19T15:04:40.201Z,100142.69
2022-11-19T15:07:33.774Z,100145.25
2022-11-19T15:10:28.825Z,100144.31
2022-11-19T15:13:18.575Z,100139.06
2022-11-19T15:16:05.902Z,100129.53
2022-11-19T15:19:00.806Z,100125.31
2022-11-19T15:22:08.501Z,100128.06
2022-11-19T15:24:59.092Z,100129.78
2022-11-19T15:28:05.202Z,100137.31
2022-11-19T15:31:02.586Z,100139.53
2022-11-19T15:34:12.346Z,100123.38
2022-11-19T15:37:03.128Z,100138.81
2022-11-19T15:39:55.992Z,100133.06
2022-11-19T15:42:52.302Z,100140.16
2022-11-19T15:54:34.599Z,100123.47
2022-11-19T15:57:27.453Z,100124.19
2022-11-19T16:00:16.746Z,100122.53
2022-11-19T16:03:10.231Z,100131.34
2022-11-19T16:06:02.120Z,100126.41
2022-11-19T16:08:56.891Z,100117.03
2022-11-19T16:12:03.403Z,100121.00
2022-11-19T16:15:09.998Z,100108.00
2022-11-19T16:17:57.374Z,100116.38
2022-11-19T16:20:47.385Z,100112.94
2022-11-19T16:23:54.905Z,100101.00
2022-11-19T16:26:43.576Z,100097.56
2022-11-19T16:29:33.507Z,100099.84
2022-11-19T16:32:23.424Z,100088.41
2022-11-19T16:35:11.892Z,100089.16
2022-11-19T16:38:00.339Z,100087.34
2022-11-19T16:41:06.341Z,100080.69
2022-11-19T16:43:53.790Z,100088.41
2022-11-19T16:46:41.362Z,100081.66
2022-11-19T16:49:30.560Z,100089.22
2022-11-19T16:52:38.222Z,100080.03
2022-11-19T16:55:25.697Z,100080.38
2022-11-19T16:58:16.330Z,100076.34
2022-11-19T17:01:04.078Z,100067.06
2022-11-19T17:03:51.569Z,100066.31
2022-11-19T17:06:39.114Z,100058.84
2022-11-19T17:09:41.649Z,100067.72
2022-11-19T17:12:29.787Z,100069.34
2022-11-19T17:15:35.456Z,100066.66
2022-11-19T17:18:31.547Z,100065.59
2022-11-19T17:21:23.133Z,100067.06
2022-11-19T17:24:13.055Z,100073.97
2022-11-19T17:27:01.078Z,100048.50
2022-11-19T17:29:48.909Z,100055.22
2022-11-19T17:32:40.577Z,100037.38
2022-11-19T17:35:41.167Z,100035.66
2022-11-19T17:38:30.004Z,100045.66
2022-11-19T17:41:39.409Z,100051.59
2022-11-19T17:44:31.908Z,100055.84
2022-11-19T17:47:23.203Z,100046.50
2022-11-19T17:50:11.105Z,100044.84
2022-11-19T17:52:58.602Z,100048.13
2022-11-19T17:55:47.409Z,100045.50
2022-11-19T17:58:37.219Z,100048.53
2022-11-19T18:01:24.817Z,100035.53
2022-11-19T18:04:12.799Z,100025.44
2022-11-19T18:07:00.425Z,100027.16
2022-11-19T18:09:48.124Z,100031.59
2022-11-19T18:12:35.596Z,100028.88
2022-11-19T18:15:25.595Z,100023.63
2022-11-19T18:18:14.717Z,100036.28
2022-11-19T18:21:02.485Z,100033.81
2022-11-19T18:23:54.334Z,100030.53
2022-11-19T18:26:46.211Z,100035.78
2022-11-19T18:29:36.022Z,100018.66
2022-11-19T18:32:28.320Z,100026.22
2022-11-19T18:35:18.041Z,100018.66
2022-11-19T18:38:05.461Z,100014.56
2022-11-19T18:40:52.984Z,100012.94
2022-11-19T18:43:59.463Z,100008.75
2022-11-19T18:46:46.921Z,100013.91
2022-11-19T18:49:35.182Z,100013.03
2022-11-19T18:52:22.723Z,100019.66
2022-11-19T18:55:10.876Z,100008.66
2022-11-19T18:57:59.957Z,100020.66
2022-11-19T19:00:47.441Z,100012.28
2022-11-19T19:03:35.053Z,100013.91
2022-11-19T19:06:23.344Z,100007.75
2022-11-19T19:09:11.323Z,100000.81
2022-11-19T19:12:17.356Z,100005.03
2022-11-19T19:15:05.012Z,100005.84
2022-11-19T19:17:52.509Z,99998.13
2022-11-19T19:20:40.110Z,100000.69
2022-11-19T19:23:27.647Z,99996.38
2022-11-19T19:26:18.639Z,99991.19
2022-11-19T19:29:06.996Z,99997.75
2022-11-19T19:31:54.365Z,99995.94
2022-11-19T19:34:41.866Z,99996.75
2022-11-19T19:37:29.234Z,99991.84
2022-11-19T19:40:16.721Z,99996.75
2022-11-19T19:43:06.237Z,99983.81
2022-11-19T19:45:53.573Z,99971.91
2022-11-19T19:48:40.979Z,99973.81
2022-11-19T19:51:30.380Z,99969.72
2022-11-19T19:54:20.229Z,99962.06
2022-11-19T19:57:07.619Z,99968.09
2022-11-19T19:59:54.958Z,99966.44
2022-11-19T20:02:42.346Z,99968.19
2022-11-19T20:05:29.703Z,99971.63
2022-11-19T20:08:17.124Z,99968.25
2022-11-19T20:11:06.683Z,99975.09
2022-11-19T20:13:54.977Z,99975.88
2022-11-19T20:16:42.413Z,99982.44
2022-11-19T20:19:29.752Z,99973.91
2022-11-19T20:22:17.164Z,99976.19
2022-11-19T20:25:04.634Z,99980.38
2022-11-19T20:27:52.094Z,99991.13
2022-11-19T20:30:39.494Z,99994.41
2022-11-19T20:33:26.901Z,99988.47
2022-11-19T20:36:15.079Z,99988.47
2022-11-19T20:39:03.016Z,99988.47
2022-11-19T20:42:22.563Z,99985.88
2022-11-19T20:45:09.983Z,99999.41
2022-11-19T20:47:57.348Z,99998.53
2022-11-19T20:50:44.674Z,99993.59
2022-11-19T20:53:33.023Z,100005.34
2022-11-19T20:56:20.391Z,99996.13
2022-11-19T20:59:08.264Z,100002.78
2022-11-19T21:01:56.380Z,99993.44
2022-11-19T21:04:43.848Z,99997.69
2022-11-19T21:07:32.329Z,99997.44
2022-11-19T21:10:19.752Z,100007.44
2022-11-19T21:13:07.446Z,100006.06
2022-11-19T21:15:58.569Z,100001.91
2022-11-19T21:18:46.200Z,99993.44
2022-11-19T21:21:34.232Z,100004.25
2022-11-19T21:24:21.759Z,100004.91
2022-11-19T21:27:09.083Z,99994.44
2022-11-19T21:29:56.430Z,100007.00
2022-11-19T21:32:43.853Z,100004.38
2022-11-19T21:35:31.200Z,100001.75
2022-11-19T21:38:18.750Z,99999.53
2022-11-19T21:41:06.306Z,100002.91
2022-11-19T21:43:53.744Z,100008.56
2022-11-19T21:46:41.109Z,100001.75
2022-11-19T21:49:28.484Z,100012.75
2022-11-19T21:52:15.836Z,100015.88
2022-11-19T21:55:03.256Z,100017.59
2022-11-19T21:57:50.705Z,100018.47
2022-11-19T22:00:38.318Z,100015.69
2022-11-19T22:03:26.100Z,100013.13
2022-11-19T22:06:13.412Z,100006.41
2022-11-19T22:09:00.769Z,100006.41
2022-11-19T22:11:48.099Z,100012.38
2022-11-19T22:14:35.414Z,100004.94
2022-11-19T22:17:22.937Z,99999.63
2022-11-19T22:20:10.540Z,100000.38
2022-11-19T22:22:58.283Z,99996.09
2022-11-19T22:25:45.581Z,99991.63
2022-11-19T22:28:33.394Z,99992.34
2022-11-19T22:31:20.794Z,99993.91
2022-11-19T22:34:08.216Z,99989.44
2022-11-19T22:36:55.505Z,99997.00
2022-11-19T22:39:43.946Z,99995.19
2022-11-19T22:42:31.303Z,99988.34
2022-11-19T22:45:18.636Z,99991.06
2022-11-19T22:48:06.169Z,99991.06
2022-11-19T22:50:53.549Z,99989.44
2022-11-19T22:53:41.254Z,99993.72
2022-11-19T22:56:30.348Z,99998.00
2022-11-19T22:59:17.932Z,99989.44
2022-11-19T23:02:05.389Z,99992.53
2022-11-19T23:04:52.878Z,99986.59
2022-11-19T23:07:40.233Z,99986.59
2022-11-19T23:10:27.781Z,99998.63
2022-11-19T23:13:31.959Z,99992.72
2022-11-19T23:16:20.503Z,99991.06
2022-11-19T23:19:08.670Z,99992.00
2022-11-19T23:21:56.010Z,99990.44
2022-11-19T23:24:43.334Z,99997.28
2022-11-19T23:27:30.737Z,99994.72
2022-11-19T23:30:18.114Z,99998.81
2022-11-19T23:33:05.441Z,100003.75
2022-11-19T23:35:52.846Z,100006.13
2022-11-19T23:38:40.463Z,100008.69
2022-11-19T23:41:28.341Z,100012.75
2022-11-19T23:44:15.681Z,100010.03
2022-11-19T23:47:04.531Z,100018.53
2022-11-19T23:49:51.864Z,100020.97
2022-11-19T23:52:39.191Z,100018.44
2022-11-19T23:55:26.712Z,100012.31
2022-11-19T23:58:14.128Z,100018.34
